Time;durP1;ratioP1;P1;durP2;ratioP2;P2;SDS_P1;SDS_P2;PMS_P1;PMS_P2;Temp;Humidity;BMP_temperature;BMP_pressure;BME280_temperature;BME280_humidity;BME280_pressure;Samples;Min_cycle;Max_cycle;Signal;HPM_P1;HPM_P2
2021/04/27 00:00:13;;;;;;;27.57;12.13;;;;;;;8.33;49.35;100610.85;125667;1099;104163;-75
2021/04/27 00:03:02;;;;;;;25.87;12.00;;;;;;;8.31;49.46;100617.73;125654;1099;105203;-75
2021/04/27 00:05:30;;;;;;;23.20;10.97;;;;;;;8.31;49.47;100612.51;125649;1099;104374;-75
2021/04/27 00:07:59;;;;;;;24.85;11.80;;;;;;;8.30;49.71;100621.16;125656;1099;104179;-75
2021/04/27 00:10:28;;;;;;;24.20;11.70;;;;;;;8.27;49.15;100628.05;125658;1099;104174;-75
2021/04/27 00:12:57;;;;;;;26.00;11.43;;;;;;;8.27;49.62;100621.91;125649;1099;104261;-75
2021/04/27 00:15:27;;;;;;;26.33;11.53;;;;;;;8.24;49.37;100622.68;125648;1099;104247;-76
2021/04/27 00:17:57;;;;;;;25.50;11.23;;;;;;;8.22;49.29;100629.53;125611;1099;104447;-75
2021/04/27 00:20:27;;;;;;;24.93;11.47;;;;;;;8.21;49.66;100621.61;125633;1099;104211;-75
2021/04/27 00:22:57;;;;;;;21.20;10.63;;;;;;;8.20;49.72;100604.16;125610;1099;104297;-76
2021/04/27 00:25:26;;;;;;;23.77;11.13;;;;;;;8.17;49.54;100604.91;125672;1097;104241;-75
2021/04/27 00:27:55;;;;;;;23.73;11.13;;;;;;;8.15;49.73;100606.56;125645;1099;104313;-75
2021/04/27 00:30:27;;;;;;;23.10;10.73;;;;;;;8.15;49.73;100600.41;125610;1099;104335;-76
2021/04/27 00:32:57;;;;;;;23.37;10.50;;;;;;;8.14;49.51;100599.53;125561;1099;104169;-76
2021/04/27 00:35:26;;;;;;;26.67;11.53;;;;;;;8.14;50.09;100594.30;125578;1099;104293;-75
2021/04/27 00:37:55;;;;;;;22.10;11.20;;;;;;;8.15;50.36;100588.27;125535;1099;105591;-75
2021/04/27 00:40:26;;;;;;;23.90;10.63;;;;;;;8.14;49.86;100588.19;125583;1099;104424;-75
2021/04/27 00:42:55;;;;;;;24.80;11.33;;;;;;;8.12;50.08;100595.96;125537;1099;104489;-75
2021/04/27 00:45:26;;;;;;;29.37;12.00;;;;;;;8.10;50.70;100593.27;124904;1102;104175;-75
2021/04/27 00:47:56;;;;;;;24.93;11.90;;;;;;;8.10;50.24;100593.27;124914;1102;104335;-75
2021/04/27 00:50:28;;;;;;;22.60;11.87;;;;;;;8.08;50.99;100575.72;124951;1102;104364;-75
2021/04/27 00:52:58;;;;;;;26.90;12.70;;;;;;;8.06;50.86;100580.88;124979;1100;105170;-75
2021/04/27 00:55:28;;;;;;;24.07;11.87;;;;;;;8.01;50.50;100566.70;124891;1102;104584;-75
2021/04/27 00:57:59;;;;;;;24.00;12.67;;;;;;;7.99;51.14;100575.28;124917;1102;104214;-75
2021/04/27 01:00:33;;;;;;;25.30;12.70;;;;;;;7.96;51.29;100567.30;124974;1102;105241;-75
2021/04/27 01:03:02;;;;;;;25.88;12.13;;;;;;;7.96;51.22;100582.98;124966;1102;104325;-75
2021/04/27 01:05:34;;;;;;;24.83;11.97;;;;;;;7.95;51.55;100571.64;125441;1099;104274;-75
2021/04/27 01:08:10;;;;;;;28.73;11.93;;;;;;;7.96;51.29;100567.30;125467;1099;104475;-75
2021/04/27 01:10:45;;;;;;;22.03;11.60;;;;;;;7.96;51.74;100568.19;125551;1099;105649;-75
2021/04/27 01:13:22;;;;;;;23.80;11.80;;;;;;;7.96;52.06;100572.53;125567;1099;104172;-75
2021/04/27 01:15:51;;;;;;;23.73;11.10;;;;;;;7.92;51.70;100568.88;125581;1099;104169;-75
2021/04/27 01:18:23;;;;;;;23.77;11.90;;;;;;;7.91;52.04;100556.63;125659;1099;104194;-75
2021/04/27 01:20:54;;;;;;;22.10;10.53;;;;;;;7.91;52.02;100561.86;125608;1099;104328;-75
2021/04/27 01:23:42;;;;;;;19.73;9.97;;;;;;;7.87;52.04;100560.83;125702;1097;104175;-75
2021/04/27 01:26:25;;;;;;;25.43;11.22;;;;;;;7.84;52.07;100558.06;125692;1098;104299;-75
2021/04/27 01:28:56;;;;;;;23.65;11.95;;;;;;;7.86;52.43;100563.37;125616;1099;104158;-75
2021/04/27 01:31:27;;;;;;;24.40;11.97;;;;;;;7.91;52.57;100565.35;125663;1098;104347;-75
2021/04/27 01:33:57;;;;;;;25.80;13.20;;;;;;;7.95;52.75;100566.41;125671;1098;104174;-75
2021/04/27 01:36:27;;;;;;;23.95;12.20;;;;;;;7.96;52.97;100555.12;125680;1099;104165;-75
2021/04/27 01:38:58;;;;;;;24.13;13.13;;;;;;;7.96;53.01;100568.19;125626;1099;104169;-75
2021/04/27 01:41:27;;;;;;;26.30;12.55;;;;;;;7.94;52.97;100574.18;125679;1099;104172;-75
2021/04/27 01:43:58;;;;;;;25.23;12.70;;;;;;;7.90;53.17;100566.20;125627;1099;104261;-75
2021/04/27 01:46:28;;;;;;;21.00;10.90;;;;;;;7.89;53.38;100569.63;125628;1099;104622;-75
2021/04/27 01:48:57;;;;;;;22.20;12.17;;;;;;;7.87;53.40;100566.05;125666;1097;104191;-75
2021/04/27 01:51:27;;;;;;;23.50;11.80;;;;;;;7.85;53.29;100561.56;125673;1099;104178;-75
2021/04/27 01:54:10;;;;;;;23.47;11.73;;;;;;;7.83;53.55;100551.04;125708;1099;104194;-74
2021/04/27 01:56:39;;;;;;;22.40;11.20;;;;;;;7.83;53.88;100553.66;125702;1099;104271;-74
2021/04/27 01:59:08;;;;;;;21.23;10.73;;;;;;;7.81;53.61;100552.70;125586;1099;104242;-75
2021/04/27 02:01:42;;;;;;;21.83;11.30;;;;;;;7.79;54.13;100554.35;125640;1099;104413;-74
2021/04/27 02:04:11;;;;;;;23.50;10.23;;;;;;;7.81;53.98;100555.31;125651;1098;104165;-74
2021/04/27 02:06:56;;;;;;;20.25;10.23;;;;;;;7.82;54.28;100558.80;125676;1099;104230;-75
2021/04/27 02:09:28;;;;;;;23.13;10.13;;;;;;;7.83;54.51;100561.48;125673;1099;104428;-75
2021/04/27 02:12:10;;;;;;;18.70;9.13;;;;;;;7.83;54.55;100563.22;125625;1099;104229;-75
2021/04/27 02:14:39;;;;;;;24.60;10.00;;;;;;;7.81;54.76;100563.14;125700;1099;104172;-76
2021/04/27 02:17:14;;;;;;;19.55;9.20;;;;;;;7.80;54.92;100569.18;125678;1099;104165;-75
2021/04/27 02:19:44;;;;;;;20.97;8.90;;;;;;;7.76;54.60;100575.10;125677;1098;104178;-75
2021/04/27 02:22:31;;;;;;;22.57;10.10;;;;;;;7.69;55.11;100573.00;125663;1097;104283;-75
2021/04/27 02:25:14;;;;;;;22.00;9.63;;;;;;;7.66;55.28;100575.47;125631;1099;104214;-75
2021/04/27 02:27:44;;;;;;;19.80;9.87;;;;;;;7.58;55.61;100572.48;125656;1099;104664;-75
2021/04/27 02:30:16;;;;;;;20.73;10.80;;;;;;;7.51;55.61;100562.54;125554;1099;104290;-75
2021/04/27 02:32:46;;;;;;;21.47;10.93;;;;;;;7.48;55.68;100562.39;125659;1099;104203;-74
2021/04/27 02:35:18;;;;;;;22.43;11.03;;;;;;;7.41;55.35;100563.81;125680;1099;104306;-75
2021/04/27 02:37:50;;;;;;;24.77;11.77;;;;;;;7.38;55.50;100559.33;125663;1098;104265;-75
2021/04/27 02:40:33;;;;;;;20.97;11.10;;;;;;;7.43;55.91;100556.94;125624;1099;104181;-73
2021/04/27 02:43:03;;;;;;;21.60;11.87;;;;;;;7.46;56.02;100553.59;125647;1098;104153;-73
2021/04/27 02:45:41;;;;;;;24.07;11.90;;;;;;;7.49;56.05;100561.58;125664;1099;104165;-73
2021/04/27 02:48:31;;;;;;;24.33;11.60;;;;;;;7.52;56.20;100556.51;125630;1099;104293;-73
2021/04/27 02:51:19;;;;;;;23.40;11.43;;;;;;;7.55;56.60;100560.16;125634;1099;104175;-73
2021/04/27 02:54:00;;;;;;;21.83;11.63;;;;;;;7.57;56.47;100565.45;125660;1099;104211;-73
2021/04/27 02:56:29;;;;;;;22.73;11.37;;;;;;;7.56;56.70;100564.57;125664;1099;104185;-73
2021/04/27 02:58:58;;;;;;;23.43;11.37;;;;;;;7.53;56.42;100569.64;125652;1099;105316;-73
2021/04/27 03:01:28;;;;;;;24.60;11.30;;;;;;;7.51;56.75;100557.32;125658;1099;104283;-73
2021/04/27 03:03:57;;;;;;;21.97;10.90;;;;;;;7.50;56.97;100558.16;125603;1099;104235;-72
2021/04/27 03:06:31;;;;;;;21.60;11.45;;;;;;;7.45;57.19;100552.72;125678;1099;104168;-72
2021/04/27 03:09:12;;;;;;;25.63;11.47;;;;;;;7.38;57.12;100561.05;125547;1099;104679;-73
2021/04/27 03:11:43;;;;;;;23.30;10.50;;;;;;;7.30;57.68;100560.67;125634;1099;105904;-74
2021/04/27 03:14:12;;;;;;;24.17;11.40;;;;;;;7.18;57.70;100566.19;125651;1099;104746;-74
2021/04/27 03:16:41;;;;;;;22.43;11.67;;;;;;;7.10;57.72;100559.67;125629;1099;104175;-74
2021/04/27 03:19:10;;;;;;;24.20;11.03;;;;;;;7.09;57.91;100562.20;125660;1098;104194;-75
2021/04/27 03:21:48;;;;;;;23.97;11.23;;;;;;;7.05;58.18;100561.16;125630;1099;104241;-75
2021/04/27 03:24:16;;;;;;;22.63;11.27;;;;;;;7.00;58.24;100557.43;125687;1099;104214;-75
2021/04/27 03:26:45;;;;;;;26.00;10.47;;;;;;;6.95;58.14;100557.20;125662;1099;104183;-75
2021/04/27 03:29:25;;;;;;;18.53;9.47;;;;;;;6.88;59.04;100559.41;125569;1099;104236;-75
2021/04/27 03:32:00;;;;;;;19.80;9.60;;;;;;;6.82;59.59;100555.68;125589;1099;104301;-75
2021/04/27 03:34:29;;;;;;;20.07;9.90;;;;;;;6.76;59.14;100549.22;125656;1099;104242;-75
2021/04/27 03:37:20;;;;;;;21.57;10.07;;;;;;;6.69;58.95;100544.53;125668;1099;104217;-75
2021/04/27 03:39:49;;;;;;;20.90;9.60;;;;;;;6.76;59.26;100546.62;125595;1099;104277;-75
2021/04/27 03:42:19;;;;;;;21.47;10.27;;;;;;;6.81;59.16;100539.95;125620;1099;104332;-75
2021/04/27 03:44:49;;;;;;;22.87;9.23;;;;;;;6.84;58.99;100551.42;125643;1099;104152;-75
2021/04/27 03:47:18;;;;;;;20.73;10.53;;;;;;;6.85;59.23;100549.70;125700;1099;104166;-75
2021/04/27 03:49:47;;;;;;;21.53;10.70;;;;;;;6.87;59.50;100553.27;125655;1099;104222;-75
2021/04/27 03:52:16;;;;;;;21.30;10.33;;;;;;;6.92;59.75;100561.34;125632;1099;104168;-75
2021/04/27 03:54:45;;;;;;;22.00;9.07;;;;;;;6.94;60.02;100552.78;125642;1099;104284;-75
2021/04/27 03:57:14;;;;;;;21.83;10.53;;;;;;;6.87;60.37;100550.66;125674;1097;104185;-75
2021/04/27 03:59:52;;;;;;;23.50;11.40;;;;;;;6.81;59.85;100550.38;125666;1099;104301;-75
2021/04/27 04:02:21;;;;;;;23.85;10.75;;;;;;;6.84;60.00;100559.25;125638;1099;104217;-75
2021/04/27 04:04:50;;;;;;;20.13;9.90;;;;;;;6.84;60.14;100547.94;125642;1099;104316;-76
2021/04/27 04:07:23;;;;;;;23.53;11.00;;;;;;;6.86;60.02;100550.59;125626;1099;104169;-75
2021/04/27 04:10:12;;;;;;;22.07;10.57;;;;;;;6.88;60.12;100557.69;125630;1099;104191;-76
2021/04/27 04:12:43;;;;;;;21.43;10.77;;;;;;;6.90;60.35;100557.77;125625;1099;104172;-75
2021/04/27 04:15:16;;;;;;;19.70;10.40;;;;;;;6.90;60.35;100553.43;125665;1099;104187;-76
2021/04/27 04:17:50;;;;;;;21.87;10.07;;;;;;;6.84;61.41;100551.42;125589;1099;104300;-75
2021/04/27 04:20:21;;;;;;;22.17;10.63;;;;;;;6.72;60.58;100552.52;125638;1099;104303;-75
2021/04/27 04:23:10;;;;;;;23.77;10.90;;;;;;;6.68;61.04;100554.05;125590;1099;104172;-75
2021/04/27 04:25:39;;;;;;;19.10;9.73;;;;;;;6.67;61.14;100547.05;125669;1098;104201;-75
2021/04/27 04:28:10;;;;;;;22.77;10.40;;;;;;;6.66;60.90;100550.47;125626;1099;104165;-75
2021/04/27 04:30:39;;;;;;;21.07;10.03;;;;;;;6.70;61.08;100557.65;125611;1099;104168;-76
2021/04/27 04:33:20;;;;;;;19.27;10.83;;;;;;;6.76;61.00;100551.83;125602;1099;104165;-75
2021/04/27 04:36:00;;;;;;;18.93;10.60;;;;;;;6.80;61.04;100543.36;125660;1099;104175;-75
2021/04/27 04:38:39;;;;;;;22.70;11.33;;;;;;;6.83;61.26;100543.52;125582;1098;104239;-75
2021/04/27 04:41:19;;;;;;;20.97;10.23;;;;;;;6.83;61.33;100539.19;125604;1099;104206;-75
2021/04/27 04:43:59;;;;;;;17.73;8.70;;;;;;;6.87;61.51;100541.95;125578;1099;104181;-76
2021/04/27 04:46:39;;;;;;;20.27;10.17;;;;;;;6.88;61.49;100547.25;125550;1099;104169;-76
2021/04/27 04:49:19;;;;;;;19.20;9.47;;;;;;;6.92;61.86;100535.25;125538;1099;104172;-76
2021/04/27 04:52:00;;;;;;;23.23;11.17;;;;;;;6.93;61.67;100534.45;125595;1099;104172;-75
2021/04/27 04:54:41;;;;;;;22.27;10.63;;;;;;;6.94;61.82;100537.12;125559;1099;107030;-75
2021/04/27 04:57:22;;;;;;;20.33;11.20;;;;;;;6.99;61.88;100539.97;125549;1099;104162;-75
2021/04/27 04:59:51;;;;;;;21.73;10.97;;;;;;;7.03;61.79;100536.72;125612;1098;104332;-75
2021/04/27 05:02:20;;;;;;;19.03;10.37;;;;;;;7.00;62.13;100537.44;125621;1099;104207;-76
2021/04/27 05:04:59;;;;;;;17.27;8.30;;;;;;;6.95;62.25;100535.41;125598;1099;111138;-75
2021/04/27 05:07:43;;;;;;;18.67;9.37;;;;;;;6.92;61.84;100532.64;125636;1099;104169;-75
2021/04/27 05:10:30;;;;;;;20.93;9.33;;;;;;;6.93;62.13;100531.84;125618;1098;104268;-75
2021/04/27 05:13:14;;;;;;;20.33;9.00;;;;;;;6.94;62.39;100534.52;125596;1099;104159;-75
2021/04/27 05:15:43;;;;;;;21.03;10.27;;;;;;;6.92;62.29;100525.73;125660;1099;104197;-75
2021/04/27 05:18:13;;;;;;;21.45;10.85;;;;;;;6.97;62.37;100531.19;125611;1099;104242;-76
2021/04/27 05:20:42;;;;;;;20.70;10.07;;;;;;;7.05;62.43;100523.75;125621;1099;104155;-76
2021/04/27 05:23:11;;;;;;;19.00;10.13;;;;;;;7.09;62.56;100521.37;125674;1099;104187;-78
2021/04/27 05:25:46;;;;;;;21.27;10.83;;;;;;;7.09;62.56;100518.76;125632;1099;104300;-76
2021/04/27 05:28:15;;;;;;;20.23;10.10;;;;;;;7.11;62.19;100518.84;125698;1099;104238;-77
2021/04/27 05:30:44;;;;;;;22.00;10.50;;;;;;;7.14;62.61;100517.27;125641;1099;104296;-77
2021/04/27 05:33:13;;;;;;;18.13;9.00;;;;;;;7.14;62.64;100517.27;125574;1099;104175;-76
2021/04/27 05:35:42;;;;;;;18.07;9.07;;;;;;;7.04;62.60;100515.00;125577;1098;104281;-76
2021/04/27 05:38:11;;;;;;;18.63;8.83;;;;;;;7.01;62.76;100507.94;125591;1099;104322;-76
2021/04/27 05:40:40;;;;;;;19.80;9.10;;;;;;;7.02;62.86;100506.21;125607;1099;104174;-75
2021/04/27 05:43:09;;;;;;;18.57;9.27;;;;;;;7.08;63.08;100509.13;125653;1099;104181;-75
2021/04/27 05:45:40;;;;;;;16.70;8.10;;;;;;;7.12;62.82;100507.55;125577;1099;104175;-76
2021/04/27 05:48:09;;;;;;;18.33;8.80;;;;;;;7.08;62.92;100509.13;125676;1099;104169;-76
2021/04/27 05:50:38;;;;;;;18.00;9.17;;;;;;;7.06;63.37;100507.25;125654;1099;104044;-78
2021/04/27 05:53:08;;;;;;;16.37;8.63;;;;;;;7.01;63.41;100505.33;125656;1098;104197;-78
2021/04/27 05:55:40;;;;;;;16.53;8.40;;;;;;;6.92;64.06;100501.34;125629;1097;104353;-77
2021/04/27 05:58:09;;;;;;;17.40;8.67;;;;;;;6.83;63.44;100504.40;125622;1099;104194;-77
2021/04/27 06:00:38;;;;;;;15.90;7.77;;;;;;;6.86;64.11;100501.03;125686;1099;104290;-77
2021/04/27 06:03:07;;;;;;;16.67;7.43;;;;;;;6.84;65.70;100503.59;125648;1099;104194;-77
2021/04/27 06:05:36;;;;;;;14.40;6.97;;;;;;;6.81;64.33;100498.22;125605;1099;104795;-77
2021/04/27 06:08:07;;;;;;;15.87;7.47;;;;;;;6.78;64.23;100498.06;125553;1099;104210;-78
2021/04/27 06:10:36;;;;;;;18.20;8.13;;;;;;;6.78;64.42;100492.84;125591;1099;104159;-78
2021/04/27 06:13:05;;;;;;;17.67;8.37;;;;;;;6.77;64.08;100486.71;125597;1099;104348;-78
2021/04/27 06:15:34;;;;;;;14.80;6.83;;;;;;;6.78;65.23;100488.52;125535;1097;104294;-79
2021/04/27 06:18:03;;;;;;;15.07;7.93;;;;;;;6.74;64.78;100486.55;125630;1099;105829;-78
2021/04/27 06:20:32;;;;;;;15.00;7.03;;;;;;;6.74;65.15;100483.95;125615;1099;104166;-77
2021/04/27 06:23:01;;;;;;;14.60;6.30;;;;;;;6.77;65.32;100478.89;125649;1099;104184;-79
2021/04/27 06:25:30;;;;;;;13.57;6.47;;;;;;;6.71;65.03;100486.40;125605;1099;104306;-78
2021/04/27 06:28:00;;;;;;;13.63;6.83;;;;;;;6.67;65.04;100479.26;125564;1099;104300;-79
2021/04/27 06:30:31;;;;;;;15.87;7.03;;;;;;;6.66;65.16;100487.89;125495;1099;104204;-77
2021/04/27 06:33:01;;;;;;;14.20;7.30;;;;;;;6.64;65.38;100479.10;125701;1099;104286;-77
2021/04/27 06:35:29;;;;;;;13.30;6.07;;;;;;;6.61;66.80;100484.16;125645;1099;104319;-77
2021/04/27 06:37:58;;;;;;;19.30;7.57;;;;;;;6.54;65.73;100485.53;125662;1099;104162;-76
2021/04/27 06:40:31;;;;;;;13.83;7.20;;;;;;;6.62;65.96;100486.84;125547;1099;104172;-76
2021/04/27 06:43:00;;;;;;;11.90;6.80;;;;;;;6.66;67.07;100482.67;125799;1099;104168;-77
2021/04/27 06:45:31;;;;;;;15.53;7.03;;;;;;;6.55;66.97;100486.45;125573;1099;104191;-77
2021/04/27 06:47:59;;;;;;;14.20;6.73;;;;;;;6.44;67.62;100478.95;125598;1099;104150;-78
2021/04/27 06:50:28;;;;;;;12.07;6.43;;;;;;;6.41;67.95;100484.02;125567;1099;104182;-78
2021/04/27 06:52:58;;;;;;;12.07;6.00;;;;;;;6.36;68.63;100485.48;125534;1096;104242;-77
2021/04/27 06:55:27;;;;;;;14.77;6.40;;;;;;;6.30;68.22;100479.95;125519;1099;105559;-77
2021/04/27 06:58:04;;;;;;;11.87;6.07;;;;;;;6.28;70.12;100486.81;125575;1099;104303;-77
2021/04/27 07:00:33;;;;;;;12.60;6.60;;;;;;;6.29;68.72;100480.77;125582;1096;104174;-77
2021/04/27 07:03:04;;;;;;;13.03;6.60;;;;;;;6.30;67.70;100486.05;125597;1099;104172;-77
2021/04/27 07:05:35;;;;;;;13.83;6.90;;;;;;;6.32;68.59;100491.34;125557;1099;104293;-78
2021/04/27 07:08:05;;;;;;;11.80;6.00;;;;;;;6.31;68.33;100492.19;125553;1099;104225;-77
2021/04/27 07:10:34;;;;;;;14.23;6.37;;;;;;;6.35;68.42;100491.51;125581;1099;104207;-77
2021/04/27 07:13:03;;;;;;;12.10;5.90;;;;;;;6.37;69.36;100492.47;125581;1099;104176;-77
2021/04/27 07:15:32;;;;;;;15.70;7.13;;;;;;;6.35;68.05;100491.51;125581;1099;104280;-78
2021/04/27 07:18:01;;;;;;;13.50;6.40;;;;;;;6.39;69.17;100496.08;125456;1099;104322;-78
2021/04/27 07:20:30;;;;;;;15.47;7.70;;;;;;;6.34;67.90;100494.03;125645;1099;104178;-77
2021/04/27 07:22:59;;;;;;;13.90;6.67;;;;;;;6.34;67.78;100489.70;125468;1099;104208;-78
2021/04/27 07:25:28;;;;;;;12.03;5.87;;;;;;;6.38;70.09;100494.27;125580;1099;104171;-77
2021/04/27 07:27:57;;;;;;;13.20;6.17;;;;;;;6.30;68.97;100492.98;125601;1099;104233;-79
2021/04/27 07:30:26;;;;;;;11.60;6.10;;;;;;;6.23;68.24;100486.56;125584;1099;104258;-79
2021/04/27 07:32:55;;;;;;;13.83;6.90;;;;;;;6.29;69.15;100489.50;125572;1099;104169;-78
2021/04/27 07:35:24;;;;;;;14.10;6.77;;;;;;;6.36;67.97;100492.39;125518;1099;104150;-79
2021/04/27 07:37:56;;;;;;;14.30;6.57;;;;;;;6.39;68.19;100487.34;125602;1099;104262;-79
2021/04/27 07:40:25;;;;;;;14.07;6.87;;;;;;;6.52;68.12;100494.11;125612;1098;104248;-78
2021/04/27 07:42:55;;;;;;;15.20;7.10;;;;;;;6.58;68.60;100489.22;125527;1098;104376;-76
2021/04/27 07:45:44;;;;;;;12.37;6.77;;;;;;;6.56;68.22;100486.53;125538;1097;104283;-76
2021/04/27 07:48:20;;;;;;;12.53;6.53;;;;;;;6.61;68.18;100487.66;125601;1099;112516;-76
2021/04/27 07:50:49;;;;;;;16.33;6.80;;;;;;;6.73;68.43;100478.66;125636;1099;104175;-76
2021/04/27 07:53:18;;;;;;;12.77;5.97;;;;;;;6.77;68.27;100497.14;125594;1099;104307;-76
2021/04/27 07:55:48;;;;;;;12.30;5.77;;;;;;;6.73;68.25;100490.00;125568;1099;104258;-76
2021/04/27 07:58:17;;;;;;;11.83;5.47;;;;;;;6.73;69.10;100499.52;125637;1099;104136;-76
2021/04/27 08:00:46;;;;;;;11.00;5.47;;;;;;;6.57;69.12;100492.62;125643;1099;104171;-76
2021/04/27 08:03:15;;;;;;;11.17;6.10;;;;;;;6.55;68.85;100483.84;125629;1099;104360;-76
2021/04/27 08:05:43;;;;;;;11.60;5.27;;;;;;;6.53;69.40;100496.80;125649;1099;104316;-77
2021/04/27 08:08:12;;;;;;;9.73;5.13;;;;;;;6.52;68.79;100491.50;125587;1099;104402;-77
2021/04/27 08:10:41;;;;;;;10.03;5.00;;;;;;;6.58;68.92;100494.43;125599;1099;104842;-77
2021/04/27 08:13:10;;;;;;;9.93;5.30;;;;;;;6.59;68.42;100494.51;125568;1099;104160;-76
2021/04/27 08:15:40;;;;;;;8.73;5.03;;;;;;;6.60;69.66;100492.78;125570;1099;104141;-76
2021/04/27 08:18:10;;;;;;;9.73;5.17;;;;;;;6.58;68.69;100490.09;125590;1097;104795;-76
2021/04/27 08:20:39;;;;;;;10.65;5.55;;;;;;;6.57;69.19;100492.62;125544;1099;104336;-76
2021/04/27 08:23:09;;;;;;;9.90;5.03;;;;;;;6.54;69.57;100493.35;125672;1099;104243;-77
2021/04/27 08:25:39;;;;;;;10.60;5.30;;;;;;;6.51;69.03;100490.59;125626;1099;104290;-77
2021/04/27 08:28:08;;;;;;;9.30;5.30;;;;;;;6.53;69.01;100488.98;125663;1097;104184;-77
2021/04/27 08:30:36;;;;;;;11.90;5.40;;;;;;;6.56;68.83;100488.22;125614;1099;104201;-77
2021/04/27 08:33:06;;;;;;;10.00;5.40;;;;;;;6.57;69.33;100488.30;125580;1099;104162;-76
2021/04/27 08:35:35;;;;;;;8.77;5.00;;;;;;;6.54;68.90;100497.69;125565;1099;104203;-77
2021/04/27 08:38:04;;;;;;;9.80;4.90;;;;;;;6.54;69.60;100488.14;125594;1098;104165;-77
2021/04/27 08:40:33;;;;;;;9.80;5.23;;;;;;;6.53;69.51;100491.59;125664;1099;104169;-77
2021/04/27 08:43:02;;;;;;;9.40;4.07;;;;;;;6.52;69.18;100489.78;125584;1099;104293;-77
2021/04/27 08:45:36;;;;;;;9.87;5.00;;;;;;;6.55;69.01;100492.55;125558;1099;104513;-77
2021/04/27 08:48:15;;;;;;;7.33;4.07;;;;;;;6.66;69.73;100495.71;125503;1099;104235;-76
2021/04/27 08:50:45;;;;;;;7.80;4.63;;;;;;;6.74;69.14;100485.67;125547;1099;104255;-76
2021/04/27 08:53:14;;;;;;;12.00;5.03;;;;;;;6.86;68.97;100488.91;125566;1099;104194;-76
2021/04/27 08:55:43;;;;;;;8.80;4.70;;;;;;;7.03;69.04;100487.14;125507;1098;104171;-76
2021/04/27 08:58:14;;;;;;;9.13;4.67;;;;;;;7.06;68.95;100489.91;125463;1099;104181;-77
2021/04/27 09:00:45;;;;;;;6.83;4.13;;;;;;;7.12;69.28;100494.51;125563;1099;104169;-77
2021/04/27 09:03:16;;;;;;;6.30;4.10;;;;;;;7.11;69.62;100495.35;125575;1099;104217;-76
2021/04/27 09:05:45;;;;;;;8.00;4.40;;;;;;;7.12;69.03;100490.20;125544;1099;104162;-76
2021/04/27 09:08:15;;;;;;;9.43;4.47;;;;;;;7.17;69.20;100486.09;125433;1099;104172;-77
2021/04/27 09:10:45;;;;;;;7.47;3.97;;;;;;;7.15;68.80;100479.92;125445;1099;104232;-75
2021/04/27 09:13:18;;;;;;;7.43;3.70;;;;;;;7.24;68.99;100489.89;125551;1099;104166;-77
2021/04/27 09:15:50;;;;;;;6.60;3.83;;;;;;;7.27;68.96;100482.21;125710;1099;104224;-77
2021/04/27 09:18:31;;;;;;;7.50;3.50;;;;;;;7.28;68.98;100486.62;125579;1099;104207;-76
2021/04/27 09:21:02;;;;;;;7.60;3.50;;;;;;;7.30;69.01;100489.31;125620;1099;104165;-77
2021/04/27 09:23:33;;;;;;;4.70;3.47;;;;;;;7.35;69.53;100487.81;125573;1099;104175;-77
2021/04/27 09:26:15;;;;;;;5.90;3.40;;;;;;;7.36;69.23;100487.87;125622;1099;104238;-77
2021/04/27 09:28:47;;;;;;;3.93;2.97;;;;;;;7.61;68.76;100486.45;125573;1099;104165;-77
2021/04/27 09:31:27;;;;;;;5.13;2.87;;;;;;;7.56;68.58;100494.06;125750;1099;104246;-77
2021/04/27 09:34:21;;;;;;;5.07;2.57;;;;;;;7.38;68.67;100498.40;125579;1099;104261;-78
2021/04/27 09:36:53;;;;;;;3.55;2.62;;;;;;;7.19;68.33;100497.50;125548;1099;104252;-77
2021/04/27 09:39:32;;;;;;;3.33;2.33;;;;;;;7.10;68.50;100494.44;125575;1099;104162;-78
2021/04/27 09:42:04;;;;;;;4.53;2.73;;;;;;;7.07;69.22;100494.28;125779;1099;104165;-76
2021/04/27 09:44:38;;;;;;;3.07;2.63;;;;;;;7.01;68.86;100489.67;125616;1099;104226;-77
2021/04/27 09:47:16;;;;;;;3.60;2.70;;;;;;;7.06;68.61;100489.91;125652;1099;104415;-76
2021/04/27 09:50:01;;;;;;;4.20;2.53;;;;;;;7.17;68.30;100493.05;125501;1099;104194;-76
2021/04/27 09:52:33;;;;;;;3.20;2.45;;;;;;;7.19;68.74;100489.67;125470;1099;104175;-77
2021/04/27 09:55:08;;;;;;;4.90;2.30;;;;;;;7.23;68.31;100487.20;125560;1099;104287;-77
2021/04/27 09:57:40;;;;;;;3.00;2.60;;;;;;;7.31;68.17;100486.77;125544;1097;104175;-77
2021/04/27 10:00:25;;;;;;;3.10;2.30;;;;;;;7.51;68.51;100478.98;125823;1099;104171;-76
2021/04/27 10:02:56;;;;;;;3.30;2.33;;;;;;;7.88;67.89;100480.72;125486;1099;104211;-76
2021/04/27 10:05:25;;;;;;;3.57;2.43;;;;;;;8.06;67.34;100472.84;125689;1099;104207;-76
2021/04/27 10:07:58;;;;;;;3.50;2.20;;;;;;;8.14;67.10;100473.19;125588;1099;104293;-77
2021/04/27 10:10:30;;;;;;;3.80;2.10;;;;;;;8.16;67.53;100471.52;125480;1098;104217;-77
2021/04/27 10:13:02;;;;;;;3.23;2.73;;;;;;;8.18;67.95;100469.86;125534;1099;104232;-77
2021/04/27 10:15:32;;;;;;;4.33;2.23;;;;;;;8.09;67.29;100473.86;125432;1099;104241;-77
2021/04/27 10:18:04;;;;;;;3.07;2.03;;;;;;;8.01;67.48;100471.72;125530;1099;104162;-77
2021/04/27 10:20:33;;;;;;;3.67;2.20;;;;;;;8.00;67.47;100464.72;125505;1099;104165;-77
2021/04/27 10:23:06;;;;;;;2.45;2.00;;;;;;;8.02;67.64;100466.56;125494;1099;104247;-77
2021/04/27 10:25:36;;;;;;;3.47;2.60;;;;;;;8.00;67.26;100465.60;125577;1099;104246;-77
2021/04/27 10:28:08;;;;;;;2.50;2.07;;;;;;;7.96;67.41;100466.28;125533;1099;104671;-76
2021/04/27 10:30:42;;;;;;;3.87;2.07;;;;;;;7.81;67.21;100476.94;125562;1099;104174;-76
2021/04/27 10:33:14;;;;;;;4.37;2.75;;;;;;;7.69;67.53;100469.41;125514;1099;104165;-76
2021/04/27 10:36:01;;;;;;;3.10;2.60;;;;;;;7.74;67.29;100474.85;125847;1098;104162;-76
2021/04/27 10:38:45;;;;;;;3.30;2.10;;;;;;;7.78;66.91;100484.63;125532;1099;104291;-76
2021/04/27 10:41:16;;;;;;;4.37;2.40;;;;;;;7.79;67.38;100483.82;125451;1099;105515;-76
2021/04/27 10:43:54;;;;;;;2.37;1.97;;;;;;;7.90;67.28;100484.31;125595;1098;104168;-76
2021/04/27 10:46:45;;;;;;;3.60;2.40;;;;;;;7.98;67.59;100488.17;125669;1096;104162;-75
2021/04/27 10:49:32;;;;;;;5.13;2.50;;;;;;;7.96;67.53;100486.30;125637;1099;104175;-76
2021/04/27 10:52:03;;;;;;;3.47;2.27;;;;;;;8.06;67.09;100478.06;125502;1099;119493;-76
2021/04/27 10:54:36;;;;;;;2.83;2.17;;;;;;;8.04;67.13;100490.14;125669;1098;104163;-77
2021/04/27 10:57:19;;;;;;;3.47;2.10;;;;;;;7.95;66.17;100488.03;125589;1099;104303;-76
2021/04/27 10:59:57;;;;;;;1.80;1.70;;;;;;;7.97;66.56;100485.48;125576;1099;104163;-77
2021/04/27 11:02:29;;;;;;;1.93;1.73;;;;;;;8.20;66.46;100484.80;125531;1099;107424;-77
2021/04/27 11:05:01;;;;;;;2.93;2.00;;;;;;;8.35;66.73;100478.46;125679;1099;104297;-76
2021/04/27 11:07:39;;;;;;;1.77;1.67;;;;;;;8.48;66.84;100480.84;125612;1098;104289;-77
2021/04/27 11:10:23;;;;;;;2.53;2.10;;;;;;;8.55;66.06;100468.91;125705;1098;104168;-76
2021/04/27 11:13:02;;;;;;;3.15;2.30;;;;;;;8.61;65.93;100470.06;125746;1099;111643;-76
2021/04/27 11:15:38;;;;;;;2.03;1.83;;;;;;;8.73;66.81;100468.82;125572;1099;104335;-77
2021/04/27 11:18:24;;;;;;;1.60;1.50;;;;;;;8.67;65.38;100466.83;125487;1099;104341;-76
2021/04/27 11:20:56;;;;;;;3.40;2.20;;;;;;;8.67;65.96;100468.56;125445;1099;104299;-76
2021/04/27 11:23:52;;;;;;;1.77;1.60;;;;;;;8.73;65.20;100466.20;125527;1099;104617;-75
2021/04/27 11:26:44;;;;;;;2.43;1.67;;;;;;;8.64;66.10;100462.34;125515;1099;104159;-74
2021/04/27 11:29:26;;;;;;;1.43;1.33;;;;;;;8.69;66.19;100454.69;125590;1099;104163;-75
2021/04/27 11:32:00;;;;;;;2.27;1.70;;;;;;;8.68;65.81;100449.39;125559;1099;104325;-74
2021/04/27 11:34:47;;;;;;;4.30;2.53;;;;;;;8.81;66.20;100459.56;125561;1099;104159;-75